sensor_id;sensor_type;location;lat;lon;timestamp;P1;durP1;ratioP1;P2;durP2;ratioP2
52934;SDS011;38802;50.198;19.796;2023-02-24T00:01:54;26.70;;;17.50;;
52934;SDS011;38802;50.198;19.796;2023-02-24T00:04:33;29.20;;;19.90;;
52934;SDS011;38802;50.198;19.796;2023-02-24T00:07:08;27.40;;;18.50;;
52934;SDS011;38802;50.198;19.796;2023-02-24T00:09:37;34.50;;;19.70;;
52934;SDS011;38802;50.198;19.796;2023-02-24T00:12:11;32.30;;;18.70;;
52934;SDS011;38802;50.198;19.796;2023-02-24T00:14:41;31.90;;;19.30;;
52934;SDS011;38802;50.198;19.796;2023-02-24T00:17:11;33.90;;;19.60;;
52934;SDS011;38802;50.198;19.796;2023-02-24T00:19:43;30.00;;;18.60;;
52934;SDS011;38802;50.198;19.796;2023-02-24T00:22:13;31.50;;;19.70;;
52934;SDS011;38802;50.198;19.796;2023-02-24T00:24:41;33.60;;;20.30;;
52934;SDS011;38802;50.198;19.796;2023-02-24T00:27:09;29.10;;;20.50;;
52934;SDS011;38802;50.198;19.796;2023-02-24T00:29:39;39.50;;;19.90;;
52934;SDS011;38802;50.198;19.796;2023-02-24T00:32:09;31.10;;;20.90;;
52934;SDS011;38802;50.198;19.796;2023-02-24T00:34:40;32.50;;;18.70;;
52934;SDS011;38802;50.198;19.796;2023-02-24T00:37:10;38.70;;;21.30;;
52934;SDS011;38802;50.198;19.796;2023-02-24T00:39:38;36.40;;;21.70;;
52934;SDS011;38802;50.198;19.796;2023-02-24T00:42:09;42.60;;;22.00;;
52934;SDS011;38802;50.198;19.796;2023-02-24T00:44:47;36.30;;;20.50;;
52934;SDS011;38802;50.198;19.796;2023-02-24T00:47:16;32.20;;;21.00;;
52934;SDS011;38802;50.198;19.796;2023-02-24T00:49:44;38.90;;;22.30;;
52934;SDS011;38802;50.198;19.796;2023-02-24T00:52:13;38.90;;;22.10;;
52934;SDS011;38802;50.198;19.796;2023-02-24T00:54:48;32.60;;;22.20;;
52934;SDS011;38802;50.198;19.796;2023-02-24T00:57:16;30.80;;;21.00;;
52934;SDS011;38802;50.198;19.796;2023-02-24T00:59:47;35.00;;;21.00;;
52934;SDS011;38802;50.198;19.796;2023-02-24T01:02:18;35.30;;;22.60;;
52934;SDS011;38802;50.198;19.796;2023-02-24T01:04:46;30.20;;;21.10;;
52934;SDS011;38802;50.198;19.796;2023-02-24T01:07:16;36.40;;;21.70;;
52934;SDS011;38802;50.198;19.796;2023-02-24T01:09:45;37.80;;;21.20;;
52934;SDS011;38802;50.198;19.796;2023-02-24T01:12:16;38.30;;;22.30;;
52934;SDS011;38802;50.198;19.796;2023-02-24T01:15:05;36.40;;;21.20;;
52934;SDS011;38802;50.198;19.796;2023-02-24T01:17:35;34.70;;;21.40;;
52934;SDS011;38802;50.198;19.796;2023-02-24T01:20:05;37.00;;;20.80;;
52934;SDS011;38802;50.198;19.796;2023-02-24T01:22:46;37.50;;;20.70;;
52934;SDS011;38802;50.198;19.796;2023-02-24T01:25:16;28.40;;;19.50;;
52934;SDS011;38802;50.198;19.796;2023-02-24T01:27:47;29.80;;;20.90;;
52934;SDS011;38802;50.198;19.796;2023-02-24T01:30:15;34.80;;;20.90;;
52934;SDS011;38802;50.198;19.796;2023-02-24T01:32:45;38.80;;;21.40;;
52934;SDS011;38802;50.198;19.796;2023-02-24T01:35:14;31.60;;;19.70;;
52934;SDS011;38802;50.198;19.796;2023-02-24T01:37:43;40.10;;;20.90;;
52934;SDS011;38802;50.198;19.796;2023-02-24T01:40:12;36.30;;;20.10;;
52934;SDS011;38802;50.198;19.796;2023-02-24T01:42:46;32.50;;;20.00;;
52934;SDS011;38802;50.198;19.796;2023-02-24T01:45:16;29.20;;;19.50;;
52934;SDS011;38802;50.198;19.796;2023-02-24T01:47:48;30.40;;;18.40;;
52934;SDS011;38802;50.198;19.796;2023-02-24T01:50:19;36.50;;;21.00;;
52934;SDS011;38802;50.198;19.796;2023-02-24T01:52:52;33.10;;;19.00;;
52934;SDS011;38802;50.198;19.796;2023-02-24T01:55:25;34.70;;;20.00;;
52934;SDS011;38802;50.198;19.796;2023-02-24T01:58:00;38.90;;;19.60;;
52934;SDS011;38802;50.198;19.796;2023-02-24T02:00:31;36.50;;;19.30;;
52934;SDS011;38802;50.198;19.796;2023-02-24T02:03:08;32.10;;;19.00;;
52934;SDS011;38802;50.198;19.796;2023-02-24T02:06:11;27.70;;;18.10;;
52934;SDS011;38802;50.198;19.796;2023-02-24T02:08:40;34.90;;;19.60;;
52934;SDS011;38802;50.198;19.796;2023-02-24T02:11:12;33.50;;;19.80;;
52934;SDS011;38802;50.198;19.796;2023-02-24T02:13:48;27.80;;;18.50;;
52934;SDS011;38802;50.198;19.796;2023-02-24T02:19:18;29.50;;;19.10;;
52934;SDS011;38802;50.198;19.796;2023-02-24T02:27:45;28.90;;;18.90;;
52934;SDS011;38802;50.198;19.796;2023-02-24T02:30:22;33.10;;;19.40;;
52934;SDS011;38802;50.198;19.796;2023-02-24T02:40:47;30.10;;;19.80;;
52934;SDS011;38802;50.198;19.796;2023-02-24T02:43:40;29.90;;;19.80;;
52934;SDS011;38802;50.198;19.796;2023-02-24T02:46:16;36.70;;;22.00;;
52934;SDS011;38802;50.198;19.796;2023-02-24T02:49:03;32.60;;;19.40;;
52934;SDS011;38802;50.198;19.796;2023-02-24T02:51:40;33.40;;;20.00;;
52934;SDS011;38802;50.198;19.796;2023-02-24T02:54:16;30.50;;;19.00;;
52934;SDS011;38802;50.198;19.796;2023-02-24T02:57:11;33.60;;;20.30;;
52934;SDS011;38802;50.198;19.796;2023-02-24T02:59:48;36.80;;;20.90;;
52934;SDS011;38802;50.198;19.796;2023-02-24T03:02:22;32.40;;;20.60;;
52934;SDS011;38802;50.198;19.796;2023-02-24T03:04:57;28.50;;;19.10;;
52934;SDS011;38802;50.198;19.796;2023-02-24T03:07:28;31.50;;;19.60;;
52934;SDS011;38802;50.198;19.796;2023-02-24T03:10:03;30.80;;;20.40;;
52934;SDS011;38802;50.198;19.796;2023-02-24T03:12:37;33.00;;;20.40;;
52934;SDS011;38802;50.198;19.796;2023-02-24T03:15:08;29.90;;;19.30;;
52934;SDS011;38802;50.198;19.796;2023-02-24T03:17:39;32.50;;;20.30;;
52934;SDS011;38802;50.198;19.796;2023-02-24T03:20:19;35.10;;;20.40;;
52934;SDS011;38802;50.198;19.796;2023-02-24T03:23:03;31.00;;;18.80;;
52934;SDS011;38802;50.198;19.796;2023-02-24T03:25:38;36.20;;;20.90;;
52934;SDS011;38802;50.198;19.796;2023-02-24T03:28:19;34.90;;;21.00;;
52934;SDS011;38802;50.198;19.796;2023-02-24T03:31:00;35.60;;;21.60;;
52934;SDS011;38802;50.198;19.796;2023-02-24T03:33:41;36.60;;;20.90;;
52934;SDS011;38802;50.198;19.796;2023-02-24T03:36:18;35.20;;;21.30;;
52934;SDS011;38802;50.198;19.796;2023-02-24T03:38:47;43.90;;;21.80;;
52934;SDS011;38802;50.198;19.796;2023-02-24T03:41:17;31.20;;;20.60;;
52934;SDS011;38802;50.198;19.796;2023-02-24T03:43:46;31.20;;;20.50;;
52934;SDS011;38802;50.198;19.796;2023-02-24T03:46:17;31.50;;;19.10;;
52934;SDS011;38802;50.198;19.796;2023-02-24T03:48:47;26.10;;;18.20;;
52934;SDS011;38802;50.198;19.796;2023-02-24T03:51:22;32.20;;;19.80;;
52934;SDS011;38802;50.198;19.796;2023-02-24T04:01:42;35.60;;;21.50;;
52934;SDS011;38802;50.198;19.796;2023-02-24T04:12:44;33.30;;;21.80;;
52934;SDS011;38802;50.198;19.796;2023-02-24T04:15:26;38.40;;;21.60;;
52934;SDS011;38802;50.198;19.796;2023-02-24T04:18:00;38.30;;;23.10;;
52934;SDS011;38802;50.198;19.796;2023-02-24T04:20:36;35.90;;;22.30;;
52934;SDS011;38802;50.198;19.796;2023-02-24T04:23:14;46.00;;;24.30;;
52934;SDS011;38802;50.198;19.796;2023-02-24T04:25:46;37.80;;;24.60;;
52934;SDS011;38802;50.198;19.796;2023-02-24T04:28:17;40.60;;;23.50;;
52934;SDS011;38802;50.198;19.796;2023-02-24T04:30:50;38.90;;;24.90;;
52934;SDS011;38802;50.198;19.796;2023-02-24T04:33:22;44.60;;;25.60;;
52934;SDS011;38802;50.198;19.796;2023-02-24T04:35:51;38.30;;;23.50;;
52934;SDS011;38802;50.198;19.796;2023-02-24T04:38:20;44.90;;;24.40;;
52934;SDS011;38802;50.198;19.796;2023-02-24T04:40:48;51.00;;;25.60;;
52934;SDS011;38802;50.198;19.796;2023-02-24T04:43:16;41.10;;;24.60;;
52934;SDS011;38802;50.198;19.796;2023-02-24T04:45:45;41.70;;;25.00;;
52934;SDS011;38802;50.198;19.796;2023-02-24T04:48:13;46.50;;;25.40;;
52934;SDS011;38802;50.198;19.796;2023-02-24T04:50:41;40.50;;;23.80;;
52934;SDS011;38802;50.198;19.796;2023-02-24T04:53:11;39.90;;;24.30;;
52934;SDS011;38802;50.198;19.796;2023-02-24T04:55:43;37.00;;;23.30;;
52934;SDS011;38802;50.198;19.796;2023-02-24T04:58:17;38.00;;;23.80;;
52934;SDS011;38802;50.198;19.796;2023-02-24T05:00:48;38.00;;;24.60;;
52934;SDS011;38802;50.198;19.796;2023-02-24T05:03:20;37.80;;;23.40;;
52934;SDS011;38802;50.198;19.796;2023-02-24T05:05:56;43.00;;;24.70;;
52934;SDS011;38802;50.198;19.796;2023-02-24T05:08:27;37.10;;;23.20;;
52934;SDS011;38802;50.198;19.796;2023-02-24T05:10:57;39.00;;;21.90;;
52934;SDS011;38802;50.198;19.796;2023-02-24T05:13:27;38.00;;;21.90;;
52934;SDS011;38802;50.198;19.796;2023-02-24T05:16:03;32.60;;;20.60;;
52934;SDS011;38802;50.198;19.796;2023-02-24T05:18:35;39.40;;;20.90;;
52934;SDS011;38802;50.198;19.796;2023-02-24T05:21:05;33.30;;;20.60;;
52934;SDS011;38802;50.198;19.796;2023-02-24T05:23:54;32.10;;;19.90;;
52934;SDS011;38802;50.198;19.796;2023-02-24T05:26:25;32.00;;;21.10;;
52934;SDS011;38802;50.198;19.796;2023-02-24T05:28:54;33.20;;;18.80;;
52934;SDS011;38802;50.198;19.796;2023-02-24T05:31:24;27.20;;;18.60;;
52934;SDS011;38802;50.198;19.796;2023-02-24T05:33:58;30.10;;;18.90;;
52934;SDS011;38802;50.198;19.796;2023-02-24T05:36:30;28.80;;;18.00;;
52934;SDS011;38802;50.198;19.796;2023-02-24T05:39:01;23.10;;;17.40;;
52934;SDS011;38802;50.198;19.796;2023-02-24T05:41:39;26.00;;;16.60;;
52934;SDS011;38802;50.198;19.796;2023-02-24T05:44:10;23.30;;;17.20;;
52934;SDS011;38802;50.198;19.796;2023-02-24T05:46:43;25.80;;;18.10;;
52934;SDS011;38802;50.198;19.796;2023-02-24T05:49:21;25.50;;;16.80;;
52934;SDS011;38802;50.198;19.796;2023-02-24T05:51:56;29.80;;;18.70;;
52934;SDS011;38802;50.198;19.796;2023-02-24T05:54:28;26.40;;;19.40;;
52934;SDS011;38802;50.198;19.796;2023-02-24T05:57:00;36.00;;;19.50;;
52934;SDS011;38802;50.198;19.796;2023-02-24T05:59:31;28.40;;;19.70;;
52934;SDS011;38802;50.198;19.796;2023-02-24T06:02:01;31.30;;;21.10;;
52934;SDS011;38802;50.198;19.796;2023-02-24T06:04:35;33.80;;;20.50;;
52934;SDS011;38802;50.198;19.796;2023-02-24T06:07:12;34.10;;;20.00;;
52934;SDS011;38802;50.198;19.796;2023-02-24T06:09:46;30.10;;;20.20;;
52934;SDS011;38802;50.198;19.796;2023-02-24T06:12:21;26.60;;;18.90;;
52934;SDS011;38802;50.198;19.796;2023-02-24T06:14:51;29.40;;;19.80;;
52934;SDS011;38802;50.198;19.796;2023-02-24T06:17:20;30.60;;;19.20;;
52934;SDS011;38802;50.198;19.796;2023-02-24T06:19:49;28.70;;;20.00;;
52934;SDS011;38802;50.198;19.796;2023-02-24T06:22:19;27.40;;;19.10;;
52934;SDS011;38802;50.198;19.796;2023-02-24T06:24:49;28.60;;;17.90;;
52934;SDS011;38802;50.198;19.796;2023-02-24T06:27:18;29.10;;;20.10;;
52934;SDS011;38802;50.198;19.796;2023-02-24T06:29:49;32.80;;;19.00;;
52934;SDS011;38802;50.198;19.796;2023-02-24T06:32:19;28.70;;;19.00;;
52934;SDS011;38802;50.198;19.796;2023-02-24T06:34:50;21.90;;;18.40;;
52934;SDS011;38802;50.198;19.796;2023-02-24T06:37:20;25.20;;;17.70;;
52934;SDS011;38802;50.198;19.796;2023-02-24T06:39:50;21.20;;;17.00;;
52934;SDS011;38802;50.198;19.796;2023-02-24T06:42:18;23.80;;;16.70;;
52934;SDS011;38802;50.198;19.796;2023-02-24T06:44:46;20.90;;;16.30;;
52934;SDS011;38802;50.198;19.796;2023-02-24T06:47:15;24.40;;;16.90;;
52934;SDS011;38802;50.198;19.796;2023-02-24T06:49:44;24.10;;;16.90;;
52934;SDS011;38802;50.198;19.796;2023-02-24T06:52:12;22.80;;;16.50;;
52934;SDS011;38802;50.198;19.796;2023-02-24T06:54:46;26.60;;;17.90;;
52934;SDS011;38802;50.198;19.796;2023-02-24T06:57:16;23.40;;;17.20;;
52934;SDS011;38802;50.198;19.796;2023-02-24T06:59:44;20.80;;;16.10;;
52934;SDS011;38802;50.198;19.796;2023-02-24T07:02:13;27.30;;;16.60;;
52934;SDS011;38802;50.198;19.796;2023-02-24T07:04:41;21.00;;;16.90;;
52934;SDS011;38802;50.198;19.796;2023-02-24T07:07:14;21.60;;;16.40;;
52934;SDS011;38802;50.198;19.796;2023-02-24T07:09:44;27.30;;;18.20;;
52934;SDS011;38802;50.198;19.796;2023-02-24T07:12:12;30.10;;;24.30;;
52934;SDS011;38802;50.198;19.796;2023-02-24T07:14:42;22.50;;;17.60;;
52934;SDS011;38802;50.198;19.796;2023-02-24T07:17:10;20.60;;;16.90;;
52934;SDS011;38802;50.198;19.796;2023-02-24T07:19:41;22.40;;;17.10;;
52934;SDS011;38802;50.198;19.796;2023-02-24T07:22:10;25.50;;;16.90;;
52934;SDS011;38802;50.198;19.796;2023-02-24T07:24:41;21.80;;;16.90;;
52934;SDS011;38802;50.198;19.796;2023-02-24T07:27:13;22.00;;;17.00;;
52934;SDS011;38802;50.198;19.796;2023-02-24T07:29:49;27.50;;;17.50;;
52934;SDS011;38802;50.198;19.796;2023-02-24T07:32:20;29.30;;;16.70;;
52934;SDS011;38802;50.198;19.796;2023-02-24T07:34:50;23.50;;;16.50;;
52934;SDS011;38802;50.198;19.796;2023-02-24T07:37:19;22.30;;;17.00;;
52934;SDS011;38802;50.198;19.796;2023-02-24T07:39:47;21.10;;;17.60;;
52934;SDS011;38802;50.198;19.796;2023-02-24T07:42:15;24.60;;;17.10;;
52934;SDS011;38802;50.198;19.796;2023-02-24T07:44:44;22.00;;;15.90;;
52934;SDS011;38802;50.198;19.796;2023-02-24T07:47:13;20.50;;;16.30;;
52934;SDS011;38802;50.198;19.796;2023-02-24T07:49:43;24.30;;;16.90;;
52934;SDS011;38802;50.198;19.796;2023-02-24T07:52:12;23.20;;;16.10;;
52934;SDS011;38802;50.198;19.796;2023-02-24T07:54:40;22.70;;;16.10;;
52934;SDS011;38802;50.198;19.796;2023-02-24T07:57:09;23.80;;;16.70;;
52934;SDS011;38802;50.198;19.796;2023-02-24T07:59:41;21.90;;;16.20;;
52934;SDS011;38802;50.198;19.796;2023-02-24T08:02:12;18.80;;;15.20;;
52934;SDS011;38802;50.198;19.796;2023-02-24T08:04:40;25.80;;;16.50;;
52934;SDS011;38802;50.198;19.796;2023-02-24T08:07:17;19.90;;;16.40;;
52934;SDS011;38802;50.198;19.796;2023-02-24T08:09:52;22.50;;;17.20;;
52934;SDS011;38802;50.198;19.796;2023-02-24T08:12:40;23.10;;;16.80;;
52934;SDS011;38802;50.198;19.796;2023-02-24T08:15:11;25.30;;;15.90;;
52934;SDS011;38802;50.198;19.796;2023-02-24T08:17:52;20.50;;;15.50;;
52934;SDS011;38802;50.198;19.796;2023-02-24T08:20:27;25.70;;;17.00;;
52934;SDS011;38802;50.198;19.796;2023-02-24T08:23:03;23.30;;;16.50;;
52934;SDS011;38802;50.198;19.796;2023-02-24T08:25:35;25.50;;;17.80;;
52934;SDS011;38802;50.198;19.796;2023-02-24T08:28:05;31.00;;;17.10;;
52934;SDS011;38802;50.198;19.796;2023-02-24T08:30:40;29.30;;;18.30;;
52934;SDS011;38802;50.198;19.796;2023-02-24T08:33:20;23.70;;;16.70;;
52934;SDS011;38802;50.198;19.796;2023-02-24T08:35:51;26.10;;;18.00;;
52934;SDS011;38802;50.198;19.796;2023-02-24T08:38:29;29.90;;;17.90;;
52934;SDS011;38802;50.198;19.796;2023-02-24T08:41:11;25.20;;;18.30;;
52934;SDS011;38802;50.198;19.796;2023-02-24T08:43:45;31.00;;;20.40;;
52934;SDS011;38802;50.198;19.796;2023-02-24T08:46:16;29.20;;;19.80;;
52934;SDS011;38802;50.198;19.796;2023-02-24T08:48:57;31.60;;;19.10;;
52934;SDS011;38802;50.198;19.796;2023-02-24T08:51:31;27.00;;;18.30;;
52934;SDS011;38802;50.198;19.796;2023-02-24T08:54:06;28.10;;;18.80;;
52934;SDS011;38802;50.198;19.796;2023-02-24T08:56:38;28.90;;;20.00;;
52934;SDS011;38802;50.198;19.796;2023-02-24T08:59:11;30.20;;;20.80;;
52934;SDS011;38802;50.198;19.796;2023-02-24T09:02:01;29.00;;;19.30;;
52934;SDS011;38802;50.198;19.796;2023-02-24T09:05:05;31.30;;;18.70;;
52934;SDS011;38802;50.198;19.796;2023-02-24T09:07:40;25.70;;;18.80;;
52934;SDS011;38802;50.198;19.796;2023-02-24T09:10:13;22.70;;;17.00;;
52934;SDS011;38802;50.198;19.796;2023-02-24T09:12:47;25.50;;;18.10;;
52934;SDS011;38802;50.198;19.796;2023-02-24T09:15:15;25.20;;;17.80;;
52934;SDS011;38802;50.198;19.796;2023-02-24T09:17:44;21.50;;;16.20;;
52934;SDS011;38802;50.198;19.796;2023-02-24T09:20:20;23.50;;;15.70;;
52934;SDS011;38802;50.198;19.796;2023-02-24T09:22:52;31.70;;;18.90;;
52934;SDS011;38802;50.198;19.796;2023-02-24T09:25:30;26.90;;;17.30;;
52934;SDS011;38802;50.198;19.796;2023-02-24T09:28:15;32.00;;;17.50;;
52934;SDS011;38802;50.198;19.796;2023-02-24T09:30:47;23.10;;;17.10;;
52934;SDS011;38802;50.198;19.796;2023-02-24T09:33:33;27.80;;;18.50;;
52934;SDS011;38802;50.198;19.796;2023-02-24T09:38:49;22.10;;;16.20;;
52934;SDS011;38802;50.198;19.796;2023-02-24T09:47:13;24.40;;;17.30;;
52934;SDS011;38802;50.198;19.796;2023-02-24T09:49:48;20.90;;;16.80;;
52934;SDS011;38802;50.198;19.796;2023-02-24T09:52:24;23.60;;;15.50;;
52934;SDS011;38802;50.198;19.796;2023-02-24T10:01:03;24.20;;;15.90;;
52934;SDS011;38802;50.198;19.796;2023-02-24T10:03:59;27.10;;;17.00;;
52934;SDS011;38802;50.198;19.796;2023-02-24T10:06:50;25.00;;;18.10;;
52934;SDS011;38802;50.198;19.796;2023-02-24T10:09:26;27.80;;;18.50;;
52934;SDS011;38802;50.198;19.796;2023-02-24T10:18:01;30.40;;;18.80;;
52934;SDS011;38802;50.198;19.796;2023-02-24T10:20:56;25.20;;;19.60;;
52934;SDS011;38802;50.198;19.796;2023-02-24T10:23:51;26.50;;;18.30;;
52934;SDS011;38802;50.198;19.796;2023-02-24T10:32:42;28.00;;;20.00;;
52934;SDS011;38802;50.198;19.796;2023-02-24T10:35:17;31.00;;;21.80;;
52934;SDS011;38802;50.198;19.796;2023-02-24T10:37:47;36.10;;;22.80;;
52934;SDS011;38802;50.198;19.796;2023-02-24T10:40:16;31.50;;;20.80;;
52934;SDS011;38802;50.198;19.796;2023-02-24T10:43:13;32.20;;;21.40;;
52934;SDS011;38802;50.198;19.796;2023-02-24T10:48:19;37.80;;;21.80;;
52934;SDS011;38802;50.198;19.796;2023-02-24T10:51:15;36.90;;;22.10;;
52934;SDS011;38802;50.198;19.796;2023-02-24T10:53:50;33.20;;;21.30;;
52934;SDS011;38802;50.198;19.796;2023-02-24T10:56:41;34.30;;;22.60;;
52934;SDS011;38802;50.198;19.796;2023-02-24T10:59:15;37.30;;;23.90;;
52934;SDS011;38802;50.198;19.796;2023-02-24T11:04:36;40.50;;;24.40;;
52934;SDS011;38802;50.198;19.796;2023-02-24T11:07:31;40.40;;;24.60;;
52934;SDS011;38802;50.198;19.796;2023-02-24T11:10:19;39.50;;;21.40;;
52934;SDS011;38802;50.198;19.796;2023-02-24T11:12:53;32.20;;;21.00;;
52934;SDS011;38802;50.198;19.796;2023-02-24T11:15:52;31.00;;;21.60;;
52934;SDS011;38802;50.198;19.796;2023-02-24T11:18:44;32.50;;;21.00;;
52934;SDS011;38802;50.198;19.796;2023-02-24T11:21:16;32.60;;;22.60;;
52934;SDS011;38802;50.198;19.796;2023-02-24T11:23:54;38.80;;;23.90;;
52934;SDS011;38802;50.198;19.796;2023-02-24T11:26:34;39.80;;;24.10;;
52934;SDS011;38802;50.198;19.796;2023-02-24T11:29:39;39.90;;;22.50;;
52934;SDS011;38802;50.198;19.796;2023-02-24T11:35:20;46.10;;;25.80;;
52934;SDS011;38802;50.198;19.796;2023-02-24T11:38:09;42.30;;;23.90;;
52934;SDS011;38802;50.198;19.796;2023-02-24T11:40:47;38.20;;;23.60;;
52934;SDS011;38802;50.198;19.796;2023-02-24T11:43:22;33.80;;;22.90;;
52934;SDS011;38802;50.198;19.796;2023-02-24T11:45:59;34.20;;;20.80;;
52934;SDS011;38802;50.198;19.796;2023-02-24T11:48:38;35.40;;;23.20;;
52934;SDS011;38802;50.198;19.796;2023-02-24T11:51:12;33.30;;;22.00;;
52934;SDS011;38802;50.198;19.796;2023-02-24T11:53:46;26.90;;;19.00;;
52934;SDS011;38802;50.198;19.796;2023-02-24T11:56:17;27.20;;;17.90;;
52934;SDS011;38802;50.198;19.796;2023-02-24T11:59:01;27.60;;;18.30;;
52934;SDS011;38802;50.198;19.796;2023-02-24T12:06:58;26.60;;;18.30;;
52934;SDS011;38802;50.198;19.796;2023-02-24T12:09:39;26.10;;;19.40;;
52934;SDS011;38802;50.198;19.796;2023-02-24T12:12:16;27.60;;;19.50;;
52934;SDS011;38802;50.198;19.796;2023-02-24T12:14:58;27.00;;;18.10;;
52934;SDS011;38802;50.198;19.796;2023-02-24T12:17:52;28.50;;;18.80;;
52934;SDS011;38802;50.198;19.796;2023-02-24T12:20:32;29.00;;;17.50;;
52934;SDS011;38802;50.198;19.796;2023-02-24T12:23:13;23.00;;;17.40;;
52934;SDS011;38802;50.198;19.796;2023-02-24T12:28:40;24.30;;;16.90;;
52934;SDS011;38802;50.198;19.796;2023-02-24T12:48:18;23.80;;;17.40;;
52934;SDS011;38802;50.198;19.796;2023-02-24T12:56:44;18.50;;;14.80;;
52934;SDS011;38802;50.198;19.796;2023-02-24T12:59:24;23.80;;;16.30;;
52934;SDS011;38802;50.198;19.796;2023-02-24T13:01:58;22.90;;;16.20;;
52934;SDS011;38802;50.198;19.796;2023-02-24T13:16:34;26.60;;;15.70;;
52934;SDS011;38802;50.198;19.796;2023-02-24T13:19:03;21.60;;;15.50;;
52934;SDS011;38802;50.198;19.796;2023-02-24T13:29:44;25.80;;;17.70;;
52934;SDS011;38802;50.198;19.796;2023-02-24T13:35:00;20.00;;;15.20;;
52934;SDS011;38802;50.198;19.796;2023-02-24T13:37:35;23.30;;;14.40;;
52934;SDS011;38802;50.198;19.796;2023-02-24T13:42:54;25.00;;;17.10;;
52934;SDS011;38802;50.198;19.796;2023-02-24T13:45:24;25.90;;;15.70;;
52934;SDS011;38802;50.198;19.796;2023-02-24T14:02:18;23.80;;;15.90;;
52934;SDS011;38802;50.198;19.796;2023-02-24T14:04:50;24.80;;;17.00;;
52934;SDS011;38802;50.198;19.796;2023-02-24T14:07:21;24.30;;;17.30;;
52934;SDS011;38802;50.198;19.796;2023-02-24T14:09:53;33.30;;;19.80;;
52934;SDS011;38802;50.198;19.796;2023-02-24T14:12:25;27.60;;;19.80;;
52934;SDS011;38802;50.198;19.796;2023-02-24T14:14:56;32.20;;;21.90;;
52934;SDS011;38802;50.198;19.796;2023-02-24T14:20:21;32.10;;;20.90;;
52934;SDS011;38802;50.198;19.796;2023-02-24T14:22:51;32.00;;;21.90;;
52934;SDS011;38802;50.198;19.796;2023-02-24T14:25:21;32.10;;;20.30;;
52934;SDS011;38802;50.198;19.796;2023-02-24T14:27:51;34.00;;;21.70;;
52934;SDS011;38802;50.198;19.796;2023-02-24T14:33:00;33.20;;;21.80;;
52934;SDS011;38802;50.198;19.796;2023-02-24T14:35:35;30.30;;;20.10;;
52934;SDS011;38802;50.198;19.796;2023-02-24T14:41:04;34.20;;;20.70;;
52934;SDS011;38802;50.198;19.796;2023-02-24T14:43:39;30.60;;;18.70;;
52934;SDS011;38802;50.198;19.796;2023-02-24T14:46:07;27.90;;;18.60;;
52934;SDS011;38802;50.198;19.796;2023-02-24T14:48:36;27.20;;;19.10;;
52934;SDS011;38802;50.198;19.796;2023-02-24T14:51:06;29.80;;;18.90;;
52934;SDS011;38802;50.198;19.796;2023-02-24T14:53:45;25.00;;;18.50;;
52934;SDS011;38802;50.198;19.796;2023-02-24T14:56:17;27.00;;;18.80;;
52934;SDS011;38802;50.198;19.796;2023-02-24T14:58:49;28.70;;;19.30;;
52934;SDS011;38802;50.198;19.796;2023-02-24T15:01:37;25.80;;;17.70;;
52934;SDS011;38802;50.198;19.796;2023-02-24T15:04:14;25.50;;;17.70;;
52934;SDS011;38802;50.198;19.796;2023-02-24T15:06:57;23.60;;;17.20;;
52934;SDS011;38802;50.198;19.796;2023-02-24T15:09:28;26.30;;;19.10;;
52934;SDS011;38802;50.198;19.796;2023-02-24T15:12:18;30.60;;;17.90;;
52934;SDS011;38802;50.198;19.796;2023-02-24T15:14:50;25.90;;;17.90;;
52934;SDS011;38802;50.198;19.796;2023-02-24T15:19:54;27.40;;;18.00;;
52934;SDS011;38802;50.198;19.796;2023-02-24T15:22:24;33.50;;;21.80;;
52934;SDS011;38802;50.198;19.796;2023-02-24T15:27:58;33.50;;;21.60;;
52934;SDS011;38802;50.198;19.796;2023-02-24T15:33:05;28.20;;;17.80;;
52934;SDS011;38802;50.198;19.796;2023-02-24T15:35:35;25.70;;;17.70;;
52934;SDS011;38802;50.198;19.796;2023-02-24T15:38:35;24.20;;;16.40;;
52934;SDS011;38802;50.198;19.796;2023-02-24T15:41:06;20.40;;;16.30;;
52934;SDS011;38802;50.198;19.796;2023-02-24T15:46:26;22.80;;;16.70;;
52934;SDS011;38802;50.198;19.796;2023-02-24T15:48:57;18.20;;;14.60;;
52934;SDS011;38802;50.198;19.796;2023-02-24T15:51:36;22.60;;;15.20;;
52934;SDS011;38802;50.198;19.796;2023-02-24T15:54:20;21.30;;;14.30;;
52934;SDS011;38802;50.198;19.796;2023-02-24T15:56:52;20.10;;;13.80;;
52934;SDS011;38802;50.198;19.796;2023-02-24T15:59:20;19.10;;;14.30;;
52934;SDS011;38802;50.198;19.796;2023-02-24T16:01:48;15.40;;;13.10;;
52934;SDS011;38802;50.198;19.796;2023-02-24T16:04:19;17.60;;;14.10;;
52934;SDS011;38802;50.198;19.796;2023-02-24T16:06:50;14.10;;;11.30;;
52934;SDS011;38802;50.198;19.796;2023-02-24T16:09:36;11.80;;;10.70;;
52934;SDS011;38802;50.198;19.796;2023-02-24T16:12:29;13.70;;;10.10;;
52934;SDS011;38802;50.198;19.796;2023-02-24T16:14:59;16.60;;;11.50;;
52934;SDS011;38802;50.198;19.796;2023-02-24T16:17:32;16.30;;;13.10;;
52934;SDS011;38802;50.198;19.796;2023-02-24T16:20:06;15.00;;;12.70;;
52934;SDS011;38802;50.198;19.796;2023-02-24T16:22:38;17.30;;;12.40;;
52934;SDS011;38802;50.198;19.796;2023-02-24T16:25:07;16.70;;;13.00;;
52934;SDS011;38802;50.198;19.796;2023-02-24T16:27:35;16.10;;;13.00;;
52934;SDS011;38802;50.198;19.796;2023-02-24T16:30:03;18.00;;;12.80;;
52934;SDS011;38802;50.198;19.796;2023-02-24T16:32:32;21.10;;;14.60;;
52934;SDS011;38802;50.198;19.796;2023-02-24T16:35:00;18.60;;;14.90;;
52934;SDS011;38802;50.198;19.796;2023-02-24T16:37:29;19.80;;;14.50;;
52934;SDS011;38802;50.198;19.796;2023-02-24T16:39:57;22.70;;;14.80;;
52934;SDS011;38802;50.198;19.796;2023-02-24T16:42:25;20.90;;;14.50;;
52934;SDS011;38802;50.198;19.796;2023-02-24T16:44:53;20.20;;;14.70;;
52934;SDS011;38802;50.198;19.796;2023-02-24T16:47:22;21.30;;;14.60;;
52934;SDS011;38802;50.198;19.796;2023-02-24T16:49:52;24.10;;;14.60;;
52934;SDS011;38802;50.198;19.796;2023-02-24T16:52:24;24.60;;;15.80;;
52934;SDS011;38802;50.198;19.796;2023-02-24T16:54:54;21.30;;;16.50;;
52934;SDS011;38802;50.198;19.796;2023-02-24T16:57:22;25.70;;;17.50;;
52934;SDS011;38802;50.198;19.796;2023-02-24T16:59:52;26.30;;;17.10;;
52934;SDS011;38802;50.198;19.796;2023-02-24T17:02:21;27.80;;;16.70;;
52934;SDS011;38802;50.198;19.796;2023-02-24T17:04:51;24.00;;;17.80;;
52934;SDS011;38802;50.198;19.796;2023-02-24T17:07:19;26.50;;;16.60;;
52934;SDS011;38802;50.198;19.796;2023-02-24T17:09:48;20.10;;;15.40;;
52934;SDS011;38802;50.198;19.796;2023-02-24T17:12:18;20.50;;;16.20;;
52934;SDS011;38802;50.198;19.796;2023-02-24T17:14:48;26.50;;;17.00;;
52934;SDS011;38802;50.198;19.796;2023-02-24T17:17:17;22.00;;;15.50;;
52934;SDS011;38802;50.198;19.796;2023-02-24T17:19:45;22.70;;;16.60;;
52934;SDS011;38802;50.198;19.796;2023-02-24T17:22:13;25.90;;;16.70;;
52934;SDS011;38802;50.198;19.796;2023-02-24T17:24:41;27.20;;;17.40;;
52934;SDS011;38802;50.198;19.796;2023-02-24T17:27:12;22.30;;;15.50;;